Time;durP1;ratioP1;P1;durP2;ratioP2;P2;SDS_P1;SDS_P2;PMS_P1;PMS_P2;Temp;Humidity;BMP_temperature;BMP_pressure;BME280_temperature;BME280_humidity;BME280_pressure;Samples;Min_cycle;Max_cycle;Signal;HPM_P1;HPM_P2
2023/06/20 00:02:47;;;;;;;11.85;7.38;;;;;;;16.72;100.00;101356.44;10337409;28;20038;-75
2023/06/20 00:07:47;;;;;;;11.82;7.03;;;;;;;16.64;100.00;101354.25;10337757;28;20109;-77
2023/06/20 00:12:48;;;;;;;11.98;8.10;;;;;;;16.58;100.00;101335.94;10351776;28;20034;-77
2023/06/20 00:17:50;;;;;;;13.07;7.25;;;;;;;16.65;100.00;101347.56;10337949;28;20050;-77
2023/06/20 00:22:51;;;;;;;13.98;7.43;;;;;;;16.60;100.00;101344.81;10340858;28;20165;-78
2023/06/20 00:27:51;;;;;;;13.63;7.82;;;;;;;16.61;100.00;101351.19;10350584;28;20561;-76
2023/06/20 00:32:53;;;;;;;15.07;7.90;;;;;;;16.57;100.00;101342.59;10337638;28;20042;-77
2023/06/20 00:37:54;;;;;;;15.18;8.63;;;;;;;16.50;100.00;101331.78;10374593;28;20109;-78
2023/06/20 00:42:55;;;;;;;16.60;8.50;;;;;;;16.46;100.00;101335.41;10376774;28;20061;-75
2023/06/20 00:47:56;;;;;;;15.65;9.68;;;;;;;16.37;100.00;101323.19;10360300;28;20118;-76
2023/06/20 00:53:05;;;;;;;16.33;9.65;;;;;;;16.45;100.00;101342.06;10375605;28;20088;-77
2023/06/20 00:58:06;;;;;;;15.40;9.48;;;;;;;16.48;100.00;101349.84;10374706;28;20038;-75
2023/06/20 01:03:09;;;;;;;15.63;11.02;;;;;;;16.44;100.00;101345.97;10359588;28;20056;-77
2023/06/20 01:08:22;;;;;;;16.17;10.82;;;;;;;16.31;100.00;101331.56;10343644;28;20544;-78
2023/06/20 01:13:31;;;;;;;20.48;10.32;;;;;;;16.41;100.00;101350.13;10300759;28;20089;-77
2023/06/20 01:19:03;;;;;;;15.82;10.35;;;;;;;16.30;100.00;101335.44;10347199;28;20057;-78
2023/06/20 01:24:14;;;;;;;18.95;11.80;;;;;;;16.37;100.00;101335.16;10387615;28;20120;-77
2023/06/20 01:29:38;;;;;;;18.92;12.43;;;;;;;16.38;100.00;101336.81;10387891;28;20065;-76
2023/06/20 01:34:57;;;;;;;19.73;12.18;;;;;;;16.10;100.00;101296.59;10389158;28;20049;-77
2023/06/20 01:39:58;;;;;;;21.80;12.20;;;;;;;16.38;100.00;101341.53;10375678;28;20030;-78
2023/06/20 01:44:59;;;;;;;20.48;13.85;;;;;;;16.39;100.00;101320.97;10375563;28;20046;-77
2023/06/20 01:50:00;;;;;;;21.05;13.23;;;;;;;16.29;100.00;101313.50;10374195;28;20225;-77
2023/06/20 01:55:04;;;;;;;26.40;14.93;;;;;;;16.41;100.00;101335.41;10355216;28;20073;-76
2023/06/20 02:00:08;;;;;;;23.67;13.80;;;;;;;16.36;100.00;101332.66;10315476;28;20409;-77
2023/06/20 02:05:10;;;;;;;23.60;13.77;;;;;;;16.36;100.00;101327.09;10338730;28;20054;-76
2023/06/20 02:10:11;;;;;;;27.40;15.93;;;;;;;16.24;100.00;101313.50;10329556;28;20108;-78
2023/06/20 02:15:19;;;;;;;26.65;15.60;;;;;;;16.15;100.00;101310.47;10354130;28;20060;-76
2023/06/20 02:20:19;;;;;;;20.33;14.32;;;;;;;16.24;100.00;101325.44;10320462;28;20034;-76
2023/06/20 02:25:21;;;;;;;20.05;14.27;;;;;;;16.05;100.00;101307.72;10346847;28;20045;-76
2023/06/20 02:30:23;;;;;;;26.08;15.43;;;;;;;16.17;100.00;101319.38;10372542;28;20035;-76
2023/06/20 02:35:25;;;;;;;21.85;14.13;;;;;;;16.03;100.00;101305.22;10338509;28;20517;-77
2023/06/20 02:40:25;;;;;;;21.33;13.85;;;;;;;16.11;100.00;101335.22;10331028;28;20113;-75
2023/06/20 02:45:26;;;;;;;23.75;14.93;;;;;;;16.07;100.00;101336.88;10350020;28;20453;-76
2023/06/20 02:50:41;;;;;;;28.33;15.50;;;;;;;16.08;100.00;101346.03;10339168;28;20470;-76
2023/06/20 02:55:58;;;;;;;24.25;16.10;;;;;;;15.94;100.00;101323.56;10346609;28;20058;-77
2023/06/20 03:00:59;;;;;;;26.90;15.15;;;;;;;16.06;100.00;101340.78;10315874;28;20046;-76
2023/06/20 03:06:00;;;;;;;27.20;16.17;;;;;;;16.06;100.00;101351.03;10356140;28;20046;-77
2023/06/20 03:11:01;;;;;;;25.35;15.70;;;;;;;15.98;100.00;101343.28;10343740;28;20030;-77
2023/06/20 03:16:01;;;;;;;28.83;16.45;;;;;;;16.04;100.00;101347.72;10337730;28;20495;-76
2023/06/20 03:21:02;;;;;;;24.70;14.68;;;;;;;16.00;100.00;101353.00;10348039;28;20046;-76
2023/06/20 03:26:03;;;;;;;26.17;15.88;;;;;;;16.02;100.00;101344.38;10321391;28;20082;-75
2023/06/20 03:31:03;;;;;;;25.58;15.65;;;;;;;16.03;100.00;101346.88;10341209;28;20031;-76
2023/06/20 03:36:05;;;;;;;25.83;15.93;;;;;;;16.04;100.00;101331.03;10338693;28;20026;-78
2023/06/20 03:41:06;;;;;;;25.05;16.02;;;;;;;16.07;100.00;101327.72;10337887;28;20041;-77
2023/06/20 03:46:06;;;;;;;24.92;15.00;;;;;;;16.05;100.00;101316.06;10375845;28;20064;-77
2023/06/20 03:51:07;;;;;;;21.67;14.25;;;;;;;16.24;100.00;101325.44;10377462;28;20065;-76
2023/06/20 03:56:07;;;;;;;21.45;13.88;;;;;;;16.34;100.00;101330.97;10358611;28;20044;-77
2023/06/20 04:01:08;;;;;;;19.70;13.75;;;;;;;16.31;100.00;101306.56;10355561;28;20118;-76
2023/06/20 04:06:09;;;;;;;23.23;14.20;;;;;;;16.52;100.00;101314.81;10354104;28;20545;-78
2023/06/20 04:11:10;;;;;;;26.40;13.57;;;;;;;16.68;100.00;101319.22;10350788;28;20050;-77
2023/06/20 04:16:10;;;;;;;19.90;13.88;;;;;;;16.77;100.00;101307.50;10365830;28;20030;-77
2023/06/20 04:21:12;;;;;;;23.77;14.38;;;;;;;16.81;100.00;101305.84;10361198;28;20029;-77
2023/06/20 04:26:13;;;;;;;21.73;14.48;;;;;;;16.82;100.00;101293.59;10376989;28;20064;-77
2023/06/20 04:31:13;;;;;;;23.20;14.25;;;;;;;16.94;100.00;101307.97;10379991;28;20070;-76
2023/06/20 04:36:14;;;;;;;21.65;13.35;;;;;;;17.01;100.00;101304.88;10336437;28;20536;-77
2023/06/20 04:41:14;;;;;;;24.73;14.55;;;;;;;17.08;100.00;101294.28;10350570;28;20041;-76
2023/06/20 04:46:15;;;;;;;23.48;13.43;;;;;;;17.17;100.00;101297.28;10349337;28;20034;-77
2023/06/20 04:51:16;;;;;;;22.10;13.98;;;;;;;17.26;100.00;101296.38;10335634;28;20043;-77
2023/06/20 04:56:16;;;;;;;22.58;14.50;;;;;;;17.35;100.00;101300.19;10350483;28;20459;-76
2023/06/20 05:01:17;;;;;;;20.80;13.65;;;;;;;17.45;100.00;101304.03;10342202;28;20034;-78
2023/06/20 05:06:18;;;;;;;25.48;13.55;;;;;;;17.66;100.00;101313.06;10320121;28;20196;-76
2023/06/20 05:11:18;;;;;;;22.00;12.98;;;;;;;17.82;100.00;101297.88;10348664;28;20089;-76
2023/06/20 05:16:19;;;;;;;23.48;14.93;;;;;;;18.00;100.00;101301.06;10337165;28;20057;-77
2023/06/20 05:21:19;;;;;;;17.67;12.63;;;;;;;18.18;100.00;101305.88;10372931;28;20045;-77
2023/06/20 05:26:20;;;;;;;23.10;13.68;;;;;;;18.40;100.00;101298.94;10378017;28;20068;-76
2023/06/20 05:31:24;;;;;;;18.42;12.18;;;;;;;18.62;100.00;101293.66;10373802;28;20077;-77
2023/06/20 05:36:25;;;;;;;21.58;13.25;;;;;;;18.89;100.00;101298.66;10371531;28;20080;-76
2023/06/20 05:41:25;;;;;;;22.02;12.23;;;;;;;19.04;100.00;101280.84;10374494;28;20065;-77
2023/06/20 05:46:26;;;;;;;21.15;12.90;;;;;;;19.30;100.00;101286.03;10391041;28;20038;-77
2023/06/20 05:51:30;;;;;;;18.42;11.68;;;;;;;19.46;100.00;101275.47;10376426;28;20042;-77
2023/06/20 05:56:30;;;;;;;19.05;13.73;;;;;;;19.50;100.00;101273.72;10356616;28;20069;-77
2023/06/20 06:01:31;;;;;;;22.00;14.02;;;;;;;19.43;100.00;101235.03;10348378;28;20620;-80
2023/06/20 06:06:31;;;;;;;20.95;11.90;;;;;;;19.81;100.00;101262.84;10346757;28;20046;-78
2023/06/20 06:11:31;;;;;;;16.73;10.82;;;;;;;20.14;100.00;101273.97;10347984;28;20065;-78
2023/06/20 06:16:32;;;;;;;16.50;10.02;;;;;;;20.48;100.00;101275.53;10332563;28;20054;-90
2023/06/20 06:21:32;;;;;;;18.85;10.75;;;;;;;20.43;100.00;101242.09;10361569;28;20077;-90
2023/06/20 06:26:35;;;;;;;14.57;10.30;;;;;;;20.58;100.00;101260.50;10372624;28;20045;-89
2023/06/20 06:31:37;;;;;;;16.88;10.10;;;;;;;20.71;100.00;101268.91;10369689;28;20068;-90
2023/06/20 06:36:37;;;;;;;16.05;9.98;;;;;;;20.67;100.00;101272.63;10354833;28;20030;-89
2023/06/20 06:41:38;;;;;;;15.88;9.57;;;;;;;20.67;100.00;101278.22;10373774;28;20030;-89
2023/06/20 06:46:39;;;;;;;16.15;10.35;;;;;;;20.95;100.00;101293.00;10370817;28;20034;-90
2023/06/20 06:51:39;;;;;;;15.65;8.98;;;;;;;21.06;100.00;101274.81;10386491;28;20053;-89
2023/06/20 06:56:40;;;;;;;15.35;8.45;;;;;;;21.35;100.00;101270.78;10390729;28;20050;-89
2023/06/20 07:01:40;;;;;;;13.38;8.30;;;;;;;21.59;100.00;101259.28;10378195;28;20468;-89
2023/06/20 07:06:41;;;;;;;11.50;7.50;;;;;;;21.92;100.00;101264.59;10379868;28;20062;-89
2023/06/20 07:11:41;;;;;;;16.27;9.13;;;;;;;21.84;100.00;101252.19;10377835;28;20038;-90
2023/06/20 07:16:42;;;;;;;13.15;7.07;;;;;;;21.79;100.00;101269.16;10383329;28;20493;-90
2023/06/20 07:21:42;;;;;;;10.57;8.02;;;;;;;21.85;100.00;101273.47;10380435;28;20042;-79
2023/06/20 07:26:43;;;;;;;12.30;8.05;;;;;;;22.02;100.00;101267.13;10377755;28;20054;-89
2023/06/20 07:31:43;;;;;;;12.75;7.95;;;;;;;22.54;100.00;101263.72;10362488;28;20096;-92
2023/06/20 07:36:44;;;;;;;12.70;8.35;;;;;;;22.83;100.00;101239.81;10373154;28;20035;-90
2023/06/20 07:41:44;;;;;;;10.68;7.13;;;;;;;23.15;100.00;101250.59;10370609;28;20045;-90
2023/06/20 07:46:44;;;;;;;10.73;8.82;;;;;;;22.91;100.00;101253.03;10373450;28;20378;-88
2023/06/20 07:51:46;;;;;;;12.73;9.45;;;;;;;22.58;100.00;101239.47;10374425;28;20030;-91
2023/06/20 07:56:46;;;;;;;13.48;9.35;;;;;;;22.61;100.00;101252.81;10373326;28;20030;-92
2023/06/20 08:01:46;;;;;;;10.63;8.88;;;;;;;22.46;100.00;101237.28;10373509;28;20073;-91
2023/06/20 08:06:47;;;;;;;13.13;9.68;;;;;;;22.59;100.00;101232.69;10384557;28;20053;-91
2023/06/20 08:11:47;;;;;;;16.67;10.63;;;;;;;22.63;100.00;101241.28;10362150;28;20042;-92
2023/06/20 08:16:48;;;;;;;15.23;10.25;;;;;;;22.64;100.00;101240.13;10352673;28;20074;-93
2023/06/20 08:21:48;;;;;;;13.27;10.00;;;;;;;22.61;100.00;101237.97;10380089;28;20045;-90
2023/06/20 08:26:49;;;;;;;15.77;10.05;;;;;;;22.52;100.00;101210.72;10355198;28;20041;-92
2023/06/20 08:31:49;;;;;;;17.02;10.77;;;;;;;22.58;100.00;101217.00;10336278;28;20030;-91
2023/06/20 08:36:50;;;;;;;13.02;8.68;;;;;;;22.93;100.00;101211.44;10342414;28;20027;-92
2023/06/20 08:41:51;;;;;;;13.38;9.25;;;;;;;23.24;100.00;101202.03;10381527;28;20076;-93
2023/06/20 08:46:57;;;;;;;14.32;9.88;;;;;;;23.31;100.00;101182.66;10400776;28;20037;-91
2023/06/20 08:52:01;;;;;;;14.35;9.52;;;;;;;23.36;100.00;101179.69;10358679;28;20048;-92
2023/06/20 08:57:01;;;;;;;13.55;8.23;;;;;;;23.55;100.00;101187.75;10391230;28;20077;-93
2023/06/20 09:02:03;;;;;;;11.30;8.75;;;;;;;23.68;100.00;101174.63;10391395;28;20041;-93
2023/06/20 09:07:17;;;;;;;12.43;8.48;;;;;;;23.70;100.00;101183.56;10415634;28;20034;-92
2023/06/20 09:12:18;;;;;;;14.68;9.48;;;;;;;23.76;100.00;101187.84;10443131;28;20046;-89
2023/06/20 09:17:19;;;;;;;10.20;8.63;;;;;;;23.93;100.00;101192.59;10418570;28;20025;-94
2023/06/20 09:22:21;;;;;;;14.55;8.57;;;;;;;24.13;100.00;101179.75;10420138;28;20044;-91
2023/06/20 09:27:22;;;;;;;10.30;7.45;;;;;;;24.48;100.00;101185.19;10385730;28;20044;-93
2023/06/20 09:32:23;;;;;;;9.60;7.93;;;;;;;24.55;100.00;101182.66;10370930;28;20042;-96
2023/06/20 09:37:23;;;;;;;12.35;8.07;;;;;;;24.56;100.00;101173.06;10408133;28;20066;-93
2023/06/20 09:42:24;;;;;;;11.82;7.75;;;;;;;24.95;100.00;101160.50;10381471;28;20050;-92
2023/06/20 09:47:24;;;;;;;9.00;6.28;;;;;;;25.32;100.00;101149.38;10393477;28;20045;-91
2023/06/20 09:52:44;;;;;;;9.00;6.07;;;;;;;26.20;100.00;101159.59;10358369;28;20148;-92
2023/06/20 09:57:49;;;;;;;8.93;7.13;;;;;;;26.60;100.00;101154.00;10396156;28;20030;-88
2023/06/20 10:02:50;;;;;;;6.75;5.57;;;;;;;26.96;100.00;101157.91;10378435;28;20038;-92
2023/06/20 10:07:51;;;;;;;8.32;7.18;;;;;;;27.29;100.00;101166.13;10377368;28;20033;-92
2023/06/20 10:12:51;;;;;;;10.57;6.88;;;;;;;27.60;100.00;101127.75;10385245;28;20120;-92
2023/06/20 10:17:52;;;;;;;10.75;8.63;;;;;;;27.65;100.00;101133.13;10385343;28;20030;-92
2023/06/20 10:22:58;;;;;;;8.02;7.10;;;;;;;27.90;100.00;101119.63;10365041;28;20113;-94
2023/06/20 10:28:02;;;;;;;12.23;7.18;;;;;;;28.34;100.00;101115.78;10371667;28;20053;-85
2023/06/20 10:33:10;;;;;;;7.90;6.35;;;;;;;28.28;100.00;101112.44;10385333;28;20064;-94
2023/06/20 10:38:10;;;;;;;8.52;6.57;;;;;;;28.30;100.00;101104.41;10384246;28;20444;-93
2023/06/20 10:43:18;;;;;;;7.38;6.65;;;;;;;28.32;100.00;101099.19;10405841;28;20044;-94
2023/06/20 10:48:19;;;;;;;8.38;7.03;;;;;;;28.29;100.00;101102.75;10399980;28;20038;-94
2023/06/20 10:53:19;;;;;;;9.32;7.70;;;;;;;28.67;100.00;101084.19;10384634;28;20034;-96
2023/06/20 10:58:20;;;;;;;7.70;6.60;;;;;;;29.39;100.00;101085.56;10384303;28;20030;-96
2023/06/20 11:03:22;;;;;;;10.65;7.25;;;;;;;29.44;100.00;101059.75;10392684;28;20072;-95
2023/06/20 11:08:25;;;;;;;7.53;6.55;;;;;;;29.17;100.00;101073.84;10383073;28;20042;-94
2023/06/20 11:13:25;;;;;;;7.95;7.15;;;;;;;28.88;100.00;101066.78;10380781;28;20038;-95
2023/06/20 11:18:26;;;;;;;8.68;6.18;;;;;;;29.02;100.00;101065.41;10394369;28;20026;-95
2023/06/20 11:23:32;;;;;;;10.07;7.80;;;;;;;29.25;100.00;101056.94;10396884;28;20409;-95
2023/06/20 11:28:32;;;;;;;7.93;6.65;;;;;;;29.38;100.00;101047.06;10387695;28;20042;-95
2023/06/20 11:33:33;;;;;;;8.38;6.93;;;;;;;29.66;100.00;101048.72;10398434;28;20037;-92
2023/06/20 11:38:35;;;;;;;9.10;7.00;;;;;;;29.68;100.00;101035.78;10399629;28;20113;-92
2023/06/20 11:43:39;;;;;;;7.20;6.35;;;;;;;29.60;100.00;101051.06;10376688;28;20068;-94
2023/06/20 11:48:49;;;;;;;9.35;7.05;;;;;;;29.37;100.00;101034.06;10341235;28;20043;-92
2023/06/20 11:54:04;;;;;;;8.68;6.65;;;;;;;30.24;100.00;101039.06;10355898;28;20034;-93
2023/06/20 11:59:05;;;;;;;9.25;6.78;;;;;;;30.52;99.83;101021.59;10342194;28;20041;-94
2023/06/20 12:04:12;;;;;;;7.80;6.07;;;;;;;30.46;100.00;101023.13;10356954;28;20047;-93
2023/06/20 12:09:17;;;;;;;8.13;6.93;;;;;;;30.29;98.93;101005.50;10343304;28;20068;-95
2023/06/20 12:14:18;;;;;;;8.68;6.88;;;;;;;30.62;98.49;101012.38;10361153;28;20081;-87
2023/06/20 12:19:22;;;;;;;6.55;5.85;;;;;;;30.17;96.97;101011.38;10355614;28;20043;-93
2023/06/20 12:24:27;;;;;;;6.85;5.22;;;;;;;30.51;96.39;101009.41;10346229;28;20544;-94
2023/06/20 12:29:27;;;;;;;6.20;5.20;;;;;;;31.22;93.93;100990.66;10375529;28;20038;-91
2023/06/20 12:34:28;;;;;;;6.28;4.28;;;;;;;32.28;88.34;100983.22;10391949;28;20042;-91
2023/06/20 12:39:28;;;;;;;7.55;5.95;;;;;;;32.28;86.47;100978.31;10376301;28;20317;-93
2023/06/20 12:44:29;;;;;;;8.48;7.45;;;;;;;32.71;87.62;100991.91;10380333;28;20038;-95
2023/06/20 12:49:29;;;;;;;7.63;6.93;;;;;;;32.30;88.37;100992.16;10377722;28;20037;-95
2023/06/20 12:54:29;;;;;;;10.05;7.55;;;;;;;31.49;90.88;101005.53;10392079;28;20049;-93
2023/06/20 12:59:30;;;;;;;8.00;7.18;;;;;;;30.69;92.71;101003.91;10375223;28;20042;-94
2023/06/20 13:04:31;;;;;;;11.10;7.60;;;;;;;29.65;95.83;101007.38;10336406;28;20073;-92
2023/06/20 13:09:31;;;;;;;8.95;6.22;;;;;;;30.09;96.73;101003.97;10334051;28;20038;-80
2023/06/20 13:14:31;;;;;;;7.95;6.60;;;;;;;30.46;95.21;101004.06;10367486;28;22234;-95
2023/06/20 13:19:32;;;;;;;9.80;7.07;;;;;;;30.27;94.96;100998.53;10379774;28;20030;-90
2023/06/20 13:24:33;;;;;;;7.68;6.50;;;;;;;29.34;95.38;100995.97;10386061;28;20042;-92
2023/06/20 13:29:33;;;;;;;7.07;6.15;;;;;;;28.86;97.67;100994.69;10402624;28;20477;-93
2023/06/20 13:34:34;;;;;;;6.97;6.03;;;;;;;28.50;97.63;100994.00;10386170;28;20045;-92
2023/06/20 13:39:34;;;;;;;6.82;5.82;;;;;;;28.21;100.00;100982.06;10372082;28;20030;-92
2023/06/20 13:44:35;;;;;;;6.20;5.25;;;;;;;28.13;100.00;100969.78;10381598;28;20037;-94
2023/06/20 13:49:36;;;;;;;6.22;5.63;;;;;;;28.46;100.00;100962.75;10380846;28;20042;-94
2023/06/20 13:54:36;;;;;;;5.68;4.93;;;;;;;28.68;99.48;100954.69;10372565;28;20037;-94
2023/06/20 13:59:37;;;;;;;6.90;5.18;;;;;;;29.40;99.08;100944.59;10381602;28;20041;-83
2023/06/20 14:04:38;;;;;;;6.72;5.13;;;;;;;29.67;95.79;100928.38;10384843;28;20100;-95
2023/06/20 14:09:39;;;;;;;5.75;5.25;;;;;;;31.22;93.27;100911.03;10378752;28;20034;-93
2023/06/20 14:14:39;;;;;;;8.85;5.78;;;;;;;31.69;88.66;100883.66;10368353;28;20092;-95
2023/06/20 14:19:40;;;;;;;6.38;5.40;;;;;;;30.30;89.00;100885.00;10379203;28;20045;-96
2023/06/20 14:24:41;;;;;;;9.38;6.53;;;;;;;29.29;93.85;100893.38;10397012;28;20046;-87
2023/06/20 14:29:42;;;;;;;9.80;6.10;;;;;;;29.24;95.66;100896.56;10392827;28;20049;-89
2023/06/20 14:34:44;;;;;;;6.80;5.82;;;;;;;30.58;92.95;100878.78;10402695;28;20053;-96
2023/06/20 14:39:44;;;;;;;8.43;6.18;;;;;;;31.00;89.35;100856.00;10412623;28;20033;-94
2023/06/20 14:44:45;;;;;;;10.18;7.57;;;;;;;30.24;90.75;100854.47;10395126;28;20097;-96
2023/06/20 14:49:46;;;;;;;6.75;6.07;;;;;;;30.84;91.34;100867.63;10410713;28;20029;-95
2023/06/20 14:54:46;;;;;;;7.00;6.18;;;;;;;31.55;89.16;100845.41;10416799;28;20084;-96
2023/06/20 14:59:47;;;;;;;8.63;6.40;;;;;;;31.92;88.91;100861.41;10395845;28;20033;-96
2023/06/20 15:04:47;;;;;;;10.40;7.70;;;;;;;31.85;86.10;100866.25;10385215;28;20034;-93
2023/06/20 15:09:47;;;;;;;7.78;7.03;;;;;;;30.63;88.78;100877.59;10379231;28;20030;-95
2023/06/20 15:14:48;;;;;;;8.18;7.05;;;;;;;29.79;93.04;100874.25;10354485;28;20042;-91
2023/06/20 15:19:48;;;;;;;8.93;6.40;;;;;;;29.72;92.36;100860.78;10366199;28;20034;-85
2023/06/20 15:24:49;;;;;;;6.47;5.88;;;;;;;30.71;91.33;100873.63;10378965;28;20050;-94
2023/06/20 15:29:49;;;;;;;9.45;6.68;;;;;;;31.70;88.47;100843.44;10358328;28;20042;-92
2023/06/20 15:34:50;;;;;;;6.47;5.88;;;;;;;31.44;87.21;100846.56;10380300;28;20037;-91
2023/06/20 15:39:51;;;;;;;7.53;5.68;;;;;;;30.62;87.90;100846.78;10376902;28;20038;-94
2023/06/20 15:44:52;;;;;;;7.93;6.45;;;;;;;31.23;86.51;100825.28;10354910;28;20046;-96
2023/06/20 15:49:52;;;;;;;6.60;5.65;;;;;;;32.06;84.19;100828.53;10365981;28;20054;-96
2023/06/20 15:54:53;;;;;;;6.45;5.57;;;;;;;31.59;85.73;100805.59;10355535;28;20049;-92
2023/06/20 15:59:53;;;;;;;9.15;5.72;;;;;;;30.81;87.23;100811.59;10356927;28;20045;-95
2023/06/20 16:04:54;;;;;;;7.43;5.63;;;;;;;29.88;89.91;100823.69;10343210;28;20045;-95
2023/06/20 16:09:54;;;;;;;6.05;5.50;;;;;;;29.52;91.08;100813.91;10360297;28;20051;-82
2023/06/20 16:14:56;;;;;;;8.77;5.95;;;;;;;29.34;93.66;100822.19;10355276;28;20050;-89
2023/06/20 16:19:57;;;;;;;7.20;5.72;;;;;;;29.07;93.47;100810.84;10341890;28;20035;-85
2023/06/20 16:24:57;;;;;;;7.03;6.20;;;;;;;28.80;96.00;100812.03;10358123;28;20043;-95
2023/06/20 16:29:58;;;;;;;8.75;5.97;;;;;;;28.67;96.65;100795.25;10383928;28;20042;-95
2023/06/20 16:34:58;;;;;;;9.25;5.93;;;;;;;28.54;97.50;100807.97;10391077;28;20026;-92
2023/06/20 16:39:59;;;;;;;6.90;5.68;;;;;;;28.29;99.46;100808.31;10388561;28;20037;-94
2023/06/20 16:45:00;;;;;;;7.60;5.32;;;;;;;28.04;100.00;100810.69;10421716;28;20517;-96
2023/06/20 16:50:00;;;;;;;6.20;5.60;;;;;;;27.89;100.00;100812.44;10421562;28;20038;-95
2023/06/20 16:55:01;;;;;;;7.95;5.82;;;;;;;27.82;100.00;100806.59;10402536;28;20387;-95
2023/06/20 17:00:03;;;;;;;8.73;5.75;;;;;;;27.64;100.00;100799.75;10382458;28;20030;-96
2023/06/20 17:05:03;;;;;;;7.40;5.53;;;;;;;27.33;100.00;100802.38;10362073;28;20767;-95
2023/06/20 17:10:05;;;;;;;6.90;6.07;;;;;;;27.29;100.00;100817.63;10340585;28;20112;-93
2023/06/20 17:15:06;;;;;;;10.05;6.20;;;;;;;26.96;100.00;100787.78;10352600;28;20042;-94
2023/06/20 17:20:08;;;;;;;6.15;5.50;;;;;;;26.93;100.00;100811.94;10364863;28;20057;-91
2023/06/20 17:25:09;;;;;;;7.38;5.88;;;;;;;26.80;100.00;100807.59;10417166;28;20038;-92
2023/06/20 17:30:11;;;;;;;6.97;5.95;;;;;;;26.67;100.00;100809.72;10387760;28;20025;-95
2023/06/20 17:35:12;;;;;;;7.45;6.75;;;;;;;26.58;100.00;100814.72;10388504;28;20030;-92
2023/06/20 17:40:13;;;;;;;9.30;8.07;;;;;;;26.50;100.00;100821.34;10414421;28;20038;-95
2023/06/20 17:45:14;;;;;;;7.18;5.80;;;;;;;26.34;100.00;100818.53;10400058;28;20033;-92
2023/06/20 17:50:16;;;;;;;7.00;5.45;;;;;;;26.27;100.00;100824.78;10403409;28;20034;-93
2023/06/20 17:55:17;;;;;;;6.82;4.82;;;;;;;26.15;100.00;100830.53;10391449;28;20036;-93
2023/06/20 18:00:18;;;;;;;5.40;4.90;;;;;;;25.99;100.00;100832.50;10359503;28;20038;-95
2023/06/20 18:05:25;;;;;;;6.32;5.22;;;;;;;25.36;100.00;100746.50;10393490;28;20040;-92
2023/06/20 18:10:26;;;;;;;6.97;6.28;;;;;;;25.67;100.00;100819.06;10370181;28;20036;-90
2023/06/20 18:15:27;;;;;;;9.20;5.78;;;;;;;25.51;100.00;100810.56;10383006;28;20038;-92
2023/06/20 18:20:28;;;;;;;6.65;5.35;;;;;;;25.38;100.00;100803.31;10367347;28;20046;-95
2023/06/20 18:25:29;;;;;;;8.75;5.75;;;;;;;25.22;100.00;100808.06;10385455;28;20046;-92
2023/06/20 18:30:31;;;;;;;9.40;6.20;;;;;;;25.02;100.00;100798.59;10393687;28;20118;-94
2023/06/20 18:35:32;;;;;;;7.70;6.10;;;;;;;24.74;100.00;100788.88;10420002;28;20042;-93
2023/06/20 18:40:33;;;;;;;14.45;6.93;;;;;;;24.16;100.00;100734.66;10395868;28;20038;-88
2023/06/20 18:45:33;;;;;;;9.70;7.75;;;;;;;24.07;100.00;100770.50;10419618;28;20026;-94
2023/06/20 18:50:34;;;;;;;8.48;7.57;;;;;;;23.79;100.00;100838.59;10409268;28;20030;-93
2023/06/20 18:55:35;;;;;;;9.77;7.28;;;;;;;23.16;100.00;100859.06;10396664;28;20025;-91
2023/06/20 19:00:35;;;;;;;24.17;10.57;;;;;;;22.53;100.00;100903.75;10369326;28;20038;-93
2023/06/20 19:05:37;;;;;;;33.55;16.55;;;;;;;21.38;100.00;100942.47;10390960;28;20056;-94
2023/06/20 19:10:38;;;;;;;42.75;16.77;;;;;;;20.47;100.00;100994.22;10389588;28;20038;-96
2023/06/20 19:15:39;;;;;;;34.13;15.00;;;;;;;19.96;100.00;101024.22;10410074;22;20018;-69
2023/06/20 19:20:40;;;;;;;25.50;16.13;;;;;;;19.75;100.00;101018.25;10423456;28;20118;-70
2023/06/20 19:25:40;;;;;;;28.23;17.95;;;;;;;20.04;100.00;101070.97;10446232;28;20052;-70
2023/06/20 19:30:41;;;;;;;26.58;17.38;;;;;;;20.06;100.00;101077.09;10461631;28;20033;-70
2023/06/20 19:35:41;;;;;;;24.40;18.15;;;;;;;19.73;100.00;101017.75;10448182;28;20029;-68
2023/06/20 19:40:42;;;;;;;26.00;16.80;;;;;;;20.16;100.00;101073.25;10462293;28;20070;-68
2023/06/20 19:45:42;;;;;;;44.20;18.77;;;;;;;20.07;100.00;101058.34;10463407;28;20041;-68
2023/06/20 19:50:43;;;;;;;138.00;24.30;;;;;;;20.13;100.00;101057.94;10462296;28;20043;-69
2023/06/20 19:55:43;;;;;;;88.32;24.50;;;;;;;20.06;100.00;101051.09;10461263;28;20033;-69
2023/06/20 20:00:47;;;;;;;29.17;18.52;;;;;;;19.97;100.00;101039.84;10447350;28;20095;-69
2023/06/20 20:05:48;;;;;;;28.70;19.17;;;;;;;19.95;100.00;101037.38;10460448;28;20442;-68
2023/06/20 20:10:48;;;;;;;32.40;20.73;;;;;;;19.86;100.00;101030.03;10442467;28;20029;-68
2023/06/20 20:15:50;;;;;;;29.92;19.05;;;;;;;19.83;100.00;101017.53;10449256;28;20100;-67
2023/06/20 20:20:50;;;;;;;28.23;20.00;;;;;;;19.73;100.00;101026.13;10444549;28;20037;-67
2023/06/20 20:25:51;;;;;;;30.75;20.15;;;;;;;19.71;100.00;101029.22;10435280;28;20037;-68
2023/06/20 20:30:51;;;;;;;36.03;22.17;;;;;;;19.76;100.00;101014.31;10443164;28;20165;-68
2023/06/20 20:35:52;;;;;;;31.77;21.90;;;;;;;19.80;100.00;100998.56;10460545;28;20476;-68
2023/06/20 20:40:52;;;;;;;31.10;23.05;;;;;;;19.73;100.00;100992.59;10459056;28;20059;-68
2023/06/20 20:45:53;;;;;;;35.20;21.77;;;;;;;19.71;100.00;101017.22;10447006;28;20076;-67
2023/06/20 20:50:56;;;;;;;32.13;22.17;;;;;;;19.64;100.00;101027.97;10460946;28;20045;-68
2023/06/20 20:55:57;;;;;;;33.38;21.25;;;;;;;19.55;100.00;101020.34;10458407;28;20047;-67
2023/06/20 21:00:57;;;;;;;31.92;20.55;;;;;;;19.44;100.00;101007.72;10458104;28;20037;-66
2023/06/20 21:05:58;;;;;;;27.85;18.83;;;;;;;19.41;100.00;101008.34;10441320;28;20063;-66
2023/06/20 21:10:58;;;;;;;34.83;22.30;;;;;;;19.36;100.00;101000.06;10424590;28;20437;-67
2023/06/20 21:15:59;;;;;;;28.42;19.38;;;;;;;19.37;100.00;101012.91;10460574;28;20041;-67
2023/06/20 21:21:00;;;;;;;28.25;19.50;;;;;;;19.30;100.00;101012.47;10446023;28;20072;-67
2023/06/20 21:26:00;;;;;;;28.60;20.23;;;;;;;19.37;100.00;101032.44;10457696;28;20063;-67
2023/06/20 21:31:02;;;;;;;33.95;19.65;;;;;;;19.31;100.00;101033.69;10459008;28;20036;-67
2023/06/20 21:36:03;;;;;;;31.17;20.02;;;;;;;19.30;100.00;101043.16;10457062;28;20096;-67
2023/06/20 21:41:03;;;;;;;29.60;19.77;;;;;;;19.25;100.00;101057.25;10457024;28;20044;-67
2023/06/20 21:46:04;;;;;;;30.10;19.85;;;;;;;19.20;100.00;101057.31;10447002;28;20049;-66
2023/06/20 21:51:07;;;;;;;28.08;19.25;;;;;;;19.14;100.00;101051.84;10459525;28;20128;-67
2023/06/20 21:56:07;;;;;;;32.72;20.35;;;;;;;19.12;100.00;101058.84;10458447;28;20136;-67
2023/06/20 22:01:11;;;;;;;30.60;20.30;;;;;;;19.12;100.00;101056.06;10457832;28;20048;-66
2023/06/20 22:06:12;;;;;;;29.67;18.67;;;;;;;19.13;100.00;101058.56;10457612;28;20041;-67
2023/06/20 22:11:13;;;;;;;28.77;19.90;;;;;;;19.17;100.00;101055.16;10456000;28;20057;-67
2023/06/20 22:16:13;;;;;;;27.98;18.60;;;;;;;19.10;100.00;101050.81;10459546;28;20037;-66
2023/06/20 22:21:13;;;;;;;30.90;20.38;;;;;;;18.64;100.00;100981.84;10457515;28;20258;-67
2023/06/20 22:26:14;;;;;;;32.72;19.92;;;;;;;19.11;100.00;101049.66;10454898;28;20037;-67
2023/06/20 22:31:14;;;;;;;37.42;21.88;;;;;;;19.03;100.00;101042.00;10464715;28;20029;-67
2023/06/20 22:36:15;;;;;;;32.53;20.90;;;;;;;19.12;100.00;101054.13;10480269;28;20053;-67